sensor_id;sensor_type;location;lat;lon;timestamp;temperature;humidity
3466;DHT22;1747;48.884;9.160;2024-03-07T00:02:10;7.80;99.90
3466;DHT22;1747;48.884;9.160;2024-03-07T00:04:37;7.80;99.90
3466;DHT22;1747;48.884;9.160;2024-03-07T00:07:05;7.80;99.90
3466;DHT22;1747;48.884;9.160;2024-03-07T00:09:33;7.80;99.90
3466;DHT22;1747;48.884;9.160;2024-03-07T00:12:00;7.70;99.90
3466;DHT22;1747;48.884;9.160;2024-03-07T00:14:27;7.70;99.90
3466;DHT22;1747;48.884;9.160;2024-03-07T00:16:54;7.70;99.90
3466;DHT22;1747;48.884;9.160;2024-03-07T00:19:21;7.70;99.90
3466;DHT22;1747;48.884;9.160;2024-03-07T00:21:51;7.60;99.90
3466;DHT22;1747;48.884;9.160;2024-03-07T00:24:19;7.50;99.90
3466;DHT22;1747;48.884;9.160;2024-03-07T00:26:46;7.40;99.90
3466;DHT22;1747;48.884;9.160;2024-03-07T00:29:15;7.40;99.90
3466;DHT22;1747;48.884;9.160;2024-03-07T00:31:43;7.20;99.90
3466;DHT22;1747;48.884;9.160;2024-03-07T00:34:11;7.20;99.90
3466;DHT22;1747;48.884;9.160;2024-03-07T00:37:10;7.20;99.90
3466;DHT22;1747;48.884;9.160;2024-03-07T00:39:38;7.20;99.90
3466;DHT22;1747;48.884;9.160;2024-03-07T00:42:06;7.20;99.90
3466;DHT22;1747;48.884;9.160;2024-03-07T00:44:33;7.10;99.90
3466;DHT22;1747;48.884;9.160;2024-03-07T00:47:01;7.10;99.90
3466;DHT22;1747;48.884;9.160;2024-03-07T00:49:29;7.10;99.90
3466;DHT22;1747;48.884;9.160;2024-03-07T00:51:56;7.10;99.90
3466;DHT22;1747;48.884;9.160;2024-03-07T00:54:23;7.00;99.90
3466;DHT22;1747;48.884;9.160;2024-03-07T00:56:51;7.00;99.90
3466;DHT22;1747;48.884;9.160;2024-03-07T00:59:19;7.10;99.90
3466;DHT22;1747;48.884;9.160;2024-03-07T01:01:46;7.00;99.90
3466;DHT22;1747;48.884;9.160;2024-03-07T01:04:14;7.00;99.90
3466;DHT22;1747;48.884;9.160;2024-03-07T01:06:41;7.00;99.90
3466;DHT22;1747;48.884;9.160;2024-03-07T01:09:08;7.00;99.90
3466;DHT22;1747;48.884;9.160;2024-03-07T01:11:40;6.90;99.90
3466;DHT22;1747;48.884;9.160;2024-03-07T01:14:08;6.90;99.90
3466;DHT22;1747;48.884;9.160;2024-03-07T01:16:35;6.90;99.90
3466;DHT22;1747;48.884;9.160;2024-03-07T01:19:02;6.80;99.90
3466;DHT22;1747;48.884;9.160;2024-03-07T01:21:31;6.80;99.90
3466;DHT22;1747;48.884;9.160;2024-03-07T01:23:58;6.70;99.90
3466;DHT22;1747;48.884;9.160;2024-03-07T01:26:26;6.70;99.90
3466;DHT22;1747;48.884;9.160;2024-03-07T01:28:52;6.60;99.90
3466;DHT22;1747;48.884;9.160;2024-03-07T01:31:22;6.60;99.90
3466;DHT22;1747;48.884;9.160;2024-03-07T01:33:49;6.60;99.90
3466;DHT22;1747;48.884;9.160;2024-03-07T01:36:15;6.70;99.90
3466;DHT22;1747;48.884;9.160;2024-03-07T01:38:42;6.60;99.90
3466;DHT22;1747;48.884;9.160;2024-03-07T01:41:09;6.60;99.90
3466;DHT22;1747;48.884;9.160;2024-03-07T01:43:36;6.60;99.90
3466;DHT22;1747;48.884;9.160;2024-03-07T01:46:03;6.50;99.90
3466;DHT22;1747;48.884;9.160;2024-03-07T01:48:32;6.50;99.90
3466;DHT22;1747;48.884;9.160;2024-03-07T01:50:59;6.40;99.90
3466;DHT22;1747;48.884;9.160;2024-03-07T01:53:26;6.40;99.90
3466;DHT22;1747;48.884;9.160;2024-03-07T01:55:54;6.40;99.90
3466;DHT22;1747;48.884;9.160;2024-03-07T01:58:21;6.30;99.90
3466;DHT22;1747;48.884;9.160;2024-03-07T02:00:48;6.40;99.90
3466;DHT22;1747;48.884;9.160;2024-03-07T02:03:14;6.30;99.90
3466;DHT22;1747;48.884;9.160;2024-03-07T02:05:43;6.30;99.90
3466;DHT22;1747;48.884;9.160;2024-03-07T02:08:10;6.20;99.90
3466;DHT22;1747;48.884;9.160;2024-03-07T02:10:37;6.30;99.90
3466;DHT22;1747;48.884;9.160;2024-03-07T02:13:04;6.20;99.90
3466;DHT22;1747;48.884;9.160;2024-03-07T02:15:31;6.20;99.90
3466;DHT22;1747;48.884;9.160;2024-03-07T02:17:58;6.20;99.90
3466;DHT22;1747;48.884;9.160;2024-03-07T02:20:25;6.20;99.90
3466;DHT22;1747;48.884;9.160;2024-03-07T02:22:55;6.10;99.90
3466;DHT22;1747;48.884;9.160;2024-03-07T02:25:21;6.10;99.90
3466;DHT22;1747;48.884;9.160;2024-03-07T02:27:48;6.10;99.90
3466;DHT22;1747;48.884;9.160;2024-03-07T02:30:15;6.10;99.90
3466;DHT22;1747;48.884;9.160;2024-03-07T02:32:45;6.00;99.90
3466;DHT22;1747;48.884;9.160;2024-03-07T02:35:17;6.00;99.90
3466;DHT22;1747;48.884;9.160;2024-03-07T02:37:44;6.00;99.90
3466;DHT22;1747;48.884;9.160;2024-03-07T02:40:14;6.00;99.90
3466;DHT22;1747;48.884;9.160;2024-03-07T02:42:41;6.00;99.90
3466;DHT22;1747;48.884;9.160;2024-03-07T02:45:08;6.00;99.90
3466;DHT22;1747;48.884;9.160;2024-03-07T02:47:35;6.00;99.90
3466;DHT22;1747;48.884;9.160;2024-03-07T02:50:04;5.90;99.90
3466;DHT22;1747;48.884;9.160;2024-03-07T02:52:32;5.90;99.90
3466;DHT22;1747;48.884;9.160;2024-03-07T02:54:59;5.90;99.90
3466;DHT22;1747;48.884;9.160;2024-03-07T02:57:30;5.90;99.90
3466;DHT22;1747;48.884;9.160;2024-03-07T02:59:57;5.80;99.90
3466;DHT22;1747;48.884;9.160;2024-03-07T03:02:23;5.80;99.90
3466;DHT22;1747;48.884;9.160;2024-03-07T03:04:50;5.80;99.90
3466;DHT22;1747;48.884;9.160;2024-03-07T03:07:17;5.80;99.90
3466;DHT22;1747;48.884;9.160;2024-03-07T03:09:44;5.80;99.90
3466;DHT22;1747;48.884;9.160;2024-03-07T03:12:11;5.70;99.90
3466;DHT22;1747;48.884;9.160;2024-03-07T03:14:39;5.80;99.90
3466;DHT22;1747;48.884;9.160;2024-03-07T03:17:07;5.60;99.90
3466;DHT22;1747;48.884;9.160;2024-03-07T03:19:36;5.60;99.90
3466;DHT22;1747;48.884;9.160;2024-03-07T03:22:03;5.60;99.90
3466;DHT22;1747;48.884;9.160;2024-03-07T03:24:30;5.60;99.90
3466;DHT22;1747;48.884;9.160;2024-03-07T03:26:57;5.60;99.90
3466;DHT22;1747;48.884;9.160;2024-03-07T03:29:24;5.60;99.90
3466;DHT22;1747;48.884;9.160;2024-03-07T03:31:55;5.50;99.90
3466;DHT22;1747;48.884;9.160;2024-03-07T03:34:22;5.50;99.90
3466;DHT22;1747;48.884;9.160;2024-03-07T03:36:48;5.40;99.90
3466;DHT22;1747;48.884;9.160;2024-03-07T03:39:15;5.40;99.90
3466;DHT22;1747;48.884;9.160;2024-03-07T03:41:42;5.40;99.90
3466;DHT22;1747;48.884;9.160;2024-03-07T03:44:09;5.40;99.90
3466;DHT22;1747;48.884;9.160;2024-03-07T03:46:36;5.30;99.90
3466;DHT22;1747;48.884;9.160;2024-03-07T03:49:05;5.30;99.90
3466;DHT22;1747;48.884;9.160;2024-03-07T03:51:32;5.30;99.90
3466;DHT22;1747;48.884;9.160;2024-03-07T03:53:59;5.30;99.90
3466;DHT22;1747;48.884;9.160;2024-03-07T03:56:26;5.30;99.90
3466;DHT22;1747;48.884;9.160;2024-03-07T03:58:53;5.20;99.90
3466;DHT22;1747;48.884;9.160;2024-03-07T04:01:19;5.20;99.90
3466;DHT22;1747;48.884;9.160;2024-03-07T04:03:46;5.20;99.90
3466;DHT22;1747;48.884;9.160;2024-03-07T04:06:14;5.20;99.90
3466;DHT22;1747;48.884;9.160;2024-03-07T04:08:41;5.10;99.90
3466;DHT22;1747;48.884;9.160;2024-03-07T04:11:08;5.00;99.90
3466;DHT22;1747;48.884;9.160;2024-03-07T04:13:36;5.00;99.90
3466;DHT22;1747;48.884;9.160;2024-03-07T04:16:03;5.00;99.90
3466;DHT22;1747;48.884;9.160;2024-03-07T04:18:30;5.10;99.90
3466;DHT22;1747;48.884;9.160;2024-03-07T04:20:57;5.10;99.90
3466;DHT22;1747;48.884;9.160;2024-03-07T04:23:25;5.10;99.90
3466;DHT22;1747;48.884;9.160;2024-03-07T04:25:53;5.00;99.90
3466;DHT22;1747;48.884;9.160;2024-03-07T04:28:22;5.00;99.90
3466;DHT22;1747;48.884;9.160;2024-03-07T04:30:49;5.00;99.90
3466;DHT22;1747;48.884;9.160;2024-03-07T04:33:18;5.00;99.90
3466;DHT22;1747;48.884;9.160;2024-03-07T04:35:46;4.90;99.90
3466;DHT22;1747;48.884;9.160;2024-03-07T04:38:13;5.00;99.90
3466;DHT22;1747;48.884;9.160;2024-03-07T04:40:41;5.00;99.90
3466;DHT22;1747;48.884;9.160;2024-03-07T04:43:08;4.90;99.90
3466;DHT22;1747;48.884;9.160;2024-03-07T04:45:36;4.90;99.90
3466;DHT22;1747;48.884;9.160;2024-03-07T04:48:03;4.80;99.90
3466;DHT22;1747;48.884;9.160;2024-03-07T04:50:30;4.70;99.90
3466;DHT22;1747;48.884;9.160;2024-03-07T04:52:57;4.70;99.90
3466;DHT22;1747;48.884;9.160;2024-03-07T04:55:24;4.70;99.90
3466;DHT22;1747;48.884;9.160;2024-03-07T04:57:52;4.70;99.90
3466;DHT22;1747;48.884;9.160;2024-03-07T05:00:19;4.70;99.90
3466;DHT22;1747;48.884;9.160;2024-03-07T05:02:47;4.70;99.90
3466;DHT22;1747;48.884;9.160;2024-03-07T05:05:15;4.60;99.90
3466;DHT22;1747;48.884;9.160;2024-03-07T05:07:47;4.50;99.90
3466;DHT22;1747;48.884;9.160;2024-03-07T05:10:15;4.50;99.90
3466;DHT22;1747;48.884;9.160;2024-03-07T05:12:42;4.50;99.90
3466;DHT22;1747;48.884;9.160;2024-03-07T05:15:10;4.50;99.90
3466;DHT22;1747;48.884;9.160;2024-03-07T05:17:37;4.50;99.90
3466;DHT22;1747;48.884;9.160;2024-03-07T05:20:05;4.50;99.90
3466;DHT22;1747;48.884;9.160;2024-03-07T05:22:35;4.50;99.90
3466;DHT22;1747;48.884;9.160;2024-03-07T05:25:05;4.50;99.90
3466;DHT22;1747;48.884;9.160;2024-03-07T05:27:32;4.40;99.90
3466;DHT22;1747;48.884;9.160;2024-03-07T05:29:59;4.40;99.90
3466;DHT22;1747;48.884;9.160;2024-03-07T05:32:27;4.40;99.90
3466;DHT22;1747;48.884;9.160;2024-03-07T05:34:54;4.40;99.90
3466;DHT22;1747;48.884;9.160;2024-03-07T05:37:21;4.40;99.90
3466;DHT22;1747;48.884;9.160;2024-03-07T05:39:49;4.40;99.90
3466;DHT22;1747;48.884;9.160;2024-03-07T05:42:15;4.30;99.90
3466;DHT22;1747;48.884;9.160;2024-03-07T05:44:43;4.20;99.90
3466;DHT22;1747;48.884;9.160;2024-03-07T05:47:10;4.20;99.90
3466;DHT22;1747;48.884;9.160;2024-03-07T05:49:40;4.20;99.90
3466;DHT22;1747;48.884;9.160;2024-03-07T05:52:07;4.30;99.90
3466;DHT22;1747;48.884;9.160;2024-03-07T05:54:35;4.20;99.90
3466;DHT22;1747;48.884;9.160;2024-03-07T05:57:02;4.20;99.90
3466;DHT22;1747;48.884;9.160;2024-03-07T05:59:31;4.20;99.90
3466;DHT22;1747;48.884;9.160;2024-03-07T06:01:58;4.20;99.90
3466;DHT22;1747;48.884;9.160;2024-03-07T06:04:25;4.20;99.90
3466;DHT22;1747;48.884;9.160;2024-03-07T06:06:53;4.20;99.90
3466;DHT22;1747;48.884;9.160;2024-03-07T06:09:20;4.20;99.90
3466;DHT22;1747;48.884;9.160;2024-03-07T06:11:48;4.20;99.90
3466;DHT22;1747;48.884;9.160;2024-03-07T06:14:15;4.30;99.90
3466;DHT22;1747;48.884;9.160;2024-03-07T06:16:42;4.20;99.90
3466;DHT22;1747;48.884;9.160;2024-03-07T06:19:09;4.30;99.90
3466;DHT22;1747;48.884;9.160;2024-03-07T06:21:38;4.40;99.90
3466;DHT22;1747;48.884;9.160;2024-03-07T06:24:08;4.30;99.90
3466;DHT22;1747;48.884;9.160;2024-03-07T06:26:37;4.30;99.90
3466;DHT22;1747;48.884;9.160;2024-03-07T06:29:11;4.30;99.90
3466;DHT22;1747;48.884;9.160;2024-03-07T06:31:39;4.30;99.90
3466;DHT22;1747;48.884;9.160;2024-03-07T06:34:06;4.30;99.90
3466;DHT22;1747;48.884;9.160;2024-03-07T06:36:33;4.30;99.90
3466;DHT22;1747;48.884;9.160;2024-03-07T06:39:01;4.30;99.90
3466;DHT22;1747;48.884;9.160;2024-03-07T06:41:31;4.40;99.90
3466;DHT22;1747;48.884;9.160;2024-03-07T06:43:58;4.50;99.90
3466;DHT22;1747;48.884;9.160;2024-03-07T06:46:25;4.50;99.90
3466;DHT22;1747;48.884;9.160;2024-03-07T06:48:52;4.60;99.90
3466;DHT22;1747;48.884;9.160;2024-03-07T06:51:19;4.60;99.90
3466;DHT22;1747;48.884;9.160;2024-03-07T06:53:46;4.70;99.90
3466;DHT22;1747;48.884;9.160;2024-03-07T06:56:13;4.70;99.90
3466;DHT22;1747;48.884;9.160;2024-03-07T06:58:41;4.70;99.90
3466;DHT22;1747;48.884;9.160;2024-03-07T07:01:09;4.70;99.90
3466;DHT22;1747;48.884;9.160;2024-03-07T07:03:37;4.70;99.90
3466;DHT22;1747;48.884;9.160;2024-03-07T07:06:04;4.70;99.90
3466;DHT22;1747;48.884;9.160;2024-03-07T07:08:32;4.80;99.90
3466;DHT22;1747;48.884;9.160;2024-03-07T07:10:59;4.90;99.90
3466;DHT22;1747;48.884;9.160;2024-03-07T07:13:26;4.80;99.90
3466;DHT22;1747;48.884;9.160;2024-03-07T07:15:54;4.80;99.90
3466;DHT22;1747;48.884;9.160;2024-03-07T07:18:21;4.80;99.90
3466;DHT22;1747;48.884;9.160;2024-03-07T07:20:49;4.80;99.90
3466;DHT22;1747;48.884;9.160;2024-03-07T07:23:17;4.80;99.90
3466;DHT22;1747;48.884;9.160;2024-03-07T07:25:45;4.90;99.90
3466;DHT22;1747;48.884;9.160;2024-03-07T07:28:12;4.90;99.90
3466;DHT22;1747;48.884;9.160;2024-03-07T07:30:40;4.80;99.90
3466;DHT22;1747;48.884;9.160;2024-03-07T07:33:09;4.80;99.90
3466;DHT22;1747;48.884;9.160;2024-03-07T07:35:36;5.00;99.90
3466;DHT22;1747;48.884;9.160;2024-03-07T07:38:03;5.00;99.90
3466;DHT22;1747;48.884;9.160;2024-03-07T07:40:32;4.90;99.90
